Time;durP1;ratioP1;P1;durP2;ratioP2;P2;SDS_P1;SDS_P2;PMS_P1;PMS_P2;Temp;Humidity;BMP_temperature;BMP_pressure;BME280_temperature;BME280_humidity;BME280_pressure;Samples;Min_cycle;Max_cycle;Signal;HPM_P1;HPM_P2
2024/04/07 00:02:24;;;;;;;;;3.00;3.00;;;;;;;;5100249;27;47257;-74
2024/04/07 00:04:49;;;;;;;;;2.67;2.67;;;;;;;;5101379;27;45962;-75
2024/04/07 00:07:15;;;;;;;;;3.00;2.00;;;;;;;;5101734;27;45319;-75
2024/04/07 00:09:40;;;;;;;;;2.75;2.00;;;;;;;;5101922;27;45440;-75
2024/04/07 00:12:08;;;;;;;;;5.00;4.00;;;;;;;;5101537;27;45260;-75
2024/04/07 00:14:34;;;;;;;;;3.25;3.25;;;;;;;;5101580;27;45405;-74
2024/04/07 00:16:59;;;;;;;;;2.67;1.67;;;;;;;;5101482;27;45321;-74
2024/04/07 00:19:24;;;;;;;;;2.00;1.00;;;;;;;;5101553;27;45617;-75
2024/04/07 00:21:49;;;;;;;;;3.33;2.67;;;;;;;;5100269;27;46931;-75
2024/04/07 00:24:14;;;;;;;;;1.50;1.50;;;;;;;;5100269;27;47323;-74
2024/04/07 00:26:40;;;;;;;;;1.50;1.50;;;;;;;;5101709;27;45346;-74
2024/04/07 00:29:05;;;;;;;;;1.00;1.00;;;;;;;;5101734;27;45296;-74
2024/04/07 00:31:30;;;;;;;;;0.00;0.00;;;;;;;;5101580;27;45301;-74
2024/04/07 00:33:55;;;;;;;;;1.00;1.00;;;;;;;;5100914;27;45339;-75
2024/04/07 00:36:20;;;;;;;;;0.75;0.75;;;;;;;;5099728;27;45405;-75
2024/04/07 00:38:47;;;;;;;;;0.00;0.00;;;;;;;;5101395;27;45554;-75
2024/04/07 00:41:12;;;;;;;;;1.00;0.75;;;;;;;;5101292;27;45291;-75
2024/04/07 00:43:38;;;;;;;;;0.50;0.50;;;;;;;;5097002;27;46486;-75
2024/04/07 00:46:04;;;;;;;;;0.00;0.00;;;;;;;;5080862;28;45223;-75
2024/04/07 00:48:29;;;;;;;;;0.00;0.00;;;;;;;;5080641;28;45461;-75
2024/04/07 00:50:55;;;;;;;;;0.00;0.00;;;;;;;;5079549;28;45240;-74
2024/04/07 00:53:20;;;;;;;;;0.00;0.00;;;;;;;;5079725;28;46364;-75
2024/04/07 00:55:46;;;;;;;;;0.00;0.00;;;;;;;;5080394;28;45530;-74
2024/04/07 00:58:11;;;;;;;;;0.50;0.50;;;;;;;;5095515;27;45318;-74
2024/04/07 01:00:37;;;;;;;;;1.00;0.00;;;;;;;;5099384;27;46000;-75
2024/04/07 01:03:03;;;;;;;;;0.00;0.00;;;;;;;;5100871;27;45266;-75
2024/04/07 01:05:37;;;;;;;;;0.75;0.75;;;;;;;;5099912;27;45149;-74
2024/04/07 01:08:02;;;;;;;;;0.00;0.00;;;;;;;;5101082;27;45259;-75
2024/04/07 01:10:27;;;;;;;;;0.00;0.00;;;;;;;;5100685;27;45309;-75
2024/04/07 01:12:53;;;;;;;;;1.00;1.00;;;;;;;;5099791;27;46183;-74
2024/04/07 01:15:18;;;;;;;;;1.00;0.00;;;;;;;;5078910;28;45326;-75
2024/04/07 01:17:43;;;;;;;;;1.67;1.67;;;;;;;;5079822;28;45288;-75
2024/04/07 01:20:10;;;;;;;;;0.00;0.00;;;;;;;;5079885;28;45303;-75
2024/04/07 01:22:35;;;;;;;;;2.00;0.00;;;;;;;;5078603;28;47165;-74
2024/04/07 01:25:01;;;;;;;;;0.00;0.00;;;;;;;;5078865;28;45321;-75
2024/04/07 01:27:26;;;;;;;;;1.00;0.00;;;;;;;;5080194;28;45282;-74
2024/04/07 01:29:51;;;;;;;;;0.75;0.75;;;;;;;;5079952;28;45275;-75
2024/04/07 01:32:16;;;;;;;;;1.00;1.00;;;;;;;;5079891;28;46433;-74
2024/04/07 01:34:41;;;;;;;;;0.00;0.00;;;;;;;;5079462;28;45466;-75
2024/04/07 01:37:06;;;;;;;;;1.00;1.00;;;;;;;;5080079;28;45405;-74
2024/04/07 01:39:32;;;;;;;;;0.00;0.00;;;;;;;;5079976;28;45519;-74
2024/04/07 01:41:57;;;;;;;;;1.75;0.00;;;;;;;;5078172;28;47203;-75
2024/04/07 01:44:22;;;;;;;;;0.00;0.00;;;;;;;;5078569;28;45935;-74
2024/04/07 01:46:47;;;;;;;;;0.00;0.00;;;;;;;;5080074;28;45283;-74
2024/04/07 01:49:12;;;;;;;;;0.00;0.00;;;;;;;;5079577;28;45596;-76
2024/04/07 01:51:37;;;;;;;;;1.75;1.75;;;;;;;;5079875;28;45379;-74
2024/04/07 01:54:03;;;;;;;;;1.00;1.00;;;;;;;;5078377;28;45760;-75
2024/04/07 01:56:28;;;;;;;;;2.00;2.00;;;;;;;;5080430;27;45453;-74
2024/04/07 01:58:53;;;;;;;;;1.00;1.00;;;;;;;;5098339;27;47306;-74
2024/04/07 02:01:18;;;;;;;;;2.25;1.25;;;;;;;;5100139;27;45406;-74
2024/04/07 02:03:44;;;;;;;;;2.00;1.67;;;;;;;;5099931;27;45265;-75
2024/04/07 02:06:09;;;;;;;;;1.00;1.00;;;;;;;;5100232;27;45431;-75
2024/04/07 02:08:34;;;;;;;;;0.00;0.00;;;;;;;;5099700;27;45218;-74
2024/04/07 02:10:59;;;;;;;;;0.00;0.00;;;;;;;;5099921;27;46171;-74
2024/04/07 02:13:24;;;;;;;;;0.00;0.00;;;;;;;;5100001;27;45287;-74
2024/04/07 02:15:50;;;;;;;;;0.00;0.00;;;;;;;;5100162;27;45273;-75
2024/04/07 02:18:15;;;;;;;;;0.50;0.00;;;;;;;;5100643;27;45932;-74
2024/04/07 02:20:40;;;;;;;;;0.50;0.50;;;;;;;;5103078;27;45938;-75
2024/04/07 02:23:06;;;;;;;;;0.00;0.00;;;;;;;;5103686;27;45268;-75
2024/04/07 02:25:31;;;;;;;;;0.00;0.00;;;;;;;;5103676;27;45341;-74
2024/04/07 02:27:56;;;;;;;;;0.00;0.00;;;;;;;;5102242;27;45723;-75
2024/04/07 02:30:21;;;;;;;;;0.00;0.00;;;;;;;;5103260;27;46122;-75
2024/04/07 02:32:47;;;;;;;;;0.00;0.00;;;;;;;;5103310;27;45315;-74
2024/04/07 02:35:12;;;;;;;;;0.00;0.00;;;;;;;;5103061;27;45301;-75
2024/04/07 02:37:38;;;;;;;;;1.00;0.00;;;;;;;;5103017;27;45404;-74
2024/04/07 02:40:03;;;;;;;;;0.00;0.00;;;;;;;;5103256;27;45526;-74
2024/04/07 02:42:29;;;;;;;;;0.00;0.00;;;;;;;;5103166;27;45283;-75
2024/04/07 02:50:22;;;;;;;;;0.00;0.00;;;;;;;;5102601;27;45832;-75
2024/04/07 02:52:47;;;;;;;;;0.00;0.00;;;;;;;;5101607;27;45331;-75
2024/04/07 02:55:13;;;;;;;;;0.00;0.00;;;;;;;;5089276;27;45319;-76
2024/04/07 02:57:38;;;;;;;;;0.00;0.00;;;;;;;;5092453;27;45600;-75
2024/04/07 03:00:04;;;;;;;;;0.50;0.00;;;;;;;;5102539;27;46338;-75
2024/04/07 03:02:30;;;;;;;;;0.00;0.00;;;;;;;;5102634;27;45345;-74
2024/04/07 03:04:55;;;;;;;;;0.25;0.00;;;;;;;;5102408;27;45328;-74
2024/04/07 03:07:20;;;;;;;;;0.00;0.00;;;;;;;;5102634;27;45511;-74
2024/04/07 03:09:45;;;;;;;;;0.00;0.00;;;;;;;;5100950;27;47421;-74
2024/04/07 03:12:10;;;;;;;;;0.50;0.50;;;;;;;;5102495;27;45365;-75
2024/04/07 03:14:35;;;;;;;;;0.00;0.00;;;;;;;;5103025;27;45246;-74
2024/04/07 03:17:01;;;;;;;;;0.00;0.00;;;;;;;;5102662;27;45241;-75
2024/04/07 03:19:27;;;;;;;;;0.00;0.00;;;;;;;;5102172;27;45417;-74
2024/04/07 03:21:52;;;;;;;;;1.00;0.00;;;;;;;;5101284;27;45549;-75
2024/04/07 03:24:17;;;;;;;;;0.00;0.00;;;;;;;;5102901;27;45278;-75
2024/04/07 03:26:42;;;;;;;;;0.00;0.00;;;;;;;;5101412;27;45787;-75
2024/04/07 03:29:07;;;;;;;;;0.75;0.00;;;;;;;;5100304;27;46018;-74
2024/04/07 03:31:32;;;;;;;;;0.00;0.00;;;;;;;;5101277;27;45291;-74
2024/04/07 03:33:58;;;;;;;;;0.00;0.00;;;;;;;;5102222;27;45451;-75
2024/04/07 03:36:23;;;;;;;;;0.00;0.00;;;;;;;;5100774;27;45886;-75
2024/04/07 03:38:48;;;;;;;;;0.00;0.00;;;;;;;;5102286;27;45341;-74
2024/04/07 03:41:13;;;;;;;;;0.00;0.00;;;;;;;;5102269;27;45314;-74
2024/04/07 03:43:38;;;;;;;;;0.00;0.00;;;;;;;;5102669;27;45378;-74
2024/04/07 03:46:04;;;;;;;;;0.00;0.00;;;;;;;;5102049;27;45432;-74
2024/04/07 03:48:30;;;;;;;;;1.00;1.00;;;;;;;;5101885;27;46257;-74
2024/04/07 03:50:56;;;;;;;;;0.00;0.00;;;;;;;;5102261;27;45413;-74
2024/04/07 03:53:21;;;;;;;;;0.00;0.00;;;;;;;;5102119;27;45497;-75
2024/04/07 03:55:47;;;;;;;;;0.50;0.50;;;;;;;;5101993;27;45530;-74
2024/04/07 03:58:12;;;;;;;;;2.00;0.00;;;;;;;;5086371;27;45442;-74
2024/04/07 04:00:37;;;;;;;;;2.00;0.50;;;;;;;;5081348;28;45337;-74
2024/04/07 04:03:04;;;;;;;;;0.00;0.00;;;;;;;;5081340;28;45212;-74
2024/04/07 04:05:29;;;;;;;;;0.00;0.00;;;;;;;;5080507;28;45339;-74
2024/04/07 04:07:54;;;;;;;;;0.00;0.00;;;;;;;;5079752;28;48398;-75
2024/04/07 04:10:19;;;;;;;;;0.00;0.00;;;;;;;;5080002;28;45352;-74
2024/04/07 04:12:44;;;;;;;;;0.00;0.00;;;;;;;;5081727;28;45290;-75
2024/04/07 04:15:09;;;;;;;;;0.50;0.00;;;;;;;;5065248;28;45490;-74
2024/04/07 04:17:35;;;;;;;;;1.00;1.00;;;;;;;;5079649;28;47177;-75
2024/04/07 04:20:00;;;;;;;;;0.00;0.00;;;;;;;;5080783;28;45272;-75
2024/04/07 04:22:25;;;;;;;;;0.00;0.00;;;;;;;;5080092;28;45566;-75
2024/04/07 04:24:50;;;;;;;;;0.00;0.00;;;;;;;;5079622;28;46102;-74
2024/04/07 04:27:15;;;;;;;;;0.50;0.00;;;;;;;;5081190;28;45508;-75
2024/04/07 04:29:42;;;;;;;;;0.00;0.00;;;;;;;;5081120;28;45295;-74
2024/04/07 04:32:07;;;;;;;;;0.33;0.33;;;;;;;;5079892;28;45298;-75
2024/04/07 04:34:32;;;;;;;;;0.00;0.00;;;;;;;;5078976;28;46142;-74
2024/04/07 04:36:58;;;;;;;;;1.00;1.00;;;;;;;;5080849;28;46255;-74
2024/04/07 04:39:23;;;;;;;;;0.00;0.00;;;;;;;;5078841;28;45960;-75
2024/04/07 04:41:48;;;;;;;;;0.25;0.25;;;;;;;;5080433;28;45331;-75
2024/04/07 04:44:14;;;;;;;;;0.00;0.00;;;;;;;;5080884;28;45344;-74
2024/04/07 04:46:41;;;;;;;;;2.00;2.00;;;;;;;;5080687;28;45456;-75
2024/04/07 04:49:07;;;;;;;;;0.00;0.00;;;;;;;;5080440;28;45329;-75
2024/04/07 04:51:32;;;;;;;;;0.00;0.00;;;;;;;;5080830;28;45254;-75
2024/04/07 04:53:57;;;;;;;;;0.75;0.00;;;;;;;;5080612;28;45319;-75
2024/04/07 04:56:22;;;;;;;;;1.00;1.00;;;;;;;;5079454;28;46967;-76
2024/04/07 04:58:48;;;;;;;;;1.00;0.50;;;;;;;;5099038;27;45358;-76
2024/04/07 05:01:13;;;;;;;;;1.00;1.00;;;;;;;;5101016;27;45284;-75
2024/04/07 05:03:38;;;;;;;;;0.67;0.67;;;;;;;;5100632;27;45233;-75
2024/04/07 05:06:07;;;;;;;;;1.00;0.33;;;;;;;;5100900;27;46208;-76
2024/04/07 05:08:32;;;;;;;;;0.75;0.75;;;;;;;;5099383;27;45366;-76
2024/04/07 05:11:03;;;;;;;;;0.75;0.75;;;;;;;;5101012;27;45505;-76
2024/04/07 05:13:29;;;;;;;;;0.00;0.00;;;;;;;;5100831;27;45467;-75
2024/04/07 05:15:54;;;;;;;;;0.33;0.33;;;;;;;;5099280;27;47289;-75
2024/04/07 05:18:19;;;;;;;;;0.00;0.00;;;;;;;;5095278;27;45795;-76
2024/04/07 05:20:44;;;;;;;;;1.00;1.00;;;;;;;;5080224;28;45235;-76
2024/04/07 05:23:09;;;;;;;;;0.00;0.00;;;;;;;;5078394;28;46227;-76
2024/04/07 05:25:35;;;;;;;;;0.33;0.33;;;;;;;;5077892;28;47993;-76
2024/04/07 05:28:00;;;;;;;;;0.67;0.00;;;;;;;;5062034;28;45444;-75
2024/04/07 05:30:25;;;;;;;;;3.00;1.33;;;;;;;;5059786;28;45260;-75
2024/04/07 05:32:50;;;;;;;;;2.67;0.33;;;;;;;;5069914;28;45445;-75
2024/04/07 05:35:15;;;;;;;;;1.33;0.67;;;;;;;;5079524;28;46381;-76
2024/04/07 05:37:40;;;;;;;;;0.50;0.50;;;;;;;;5078333;28;45282;-75
2024/04/07 05:40:06;;;;;;;;;1.00;1.00;;;;;;;;5080516;28;45531;-78
2024/04/07 05:42:34;;;;;;;;;0.33;0.33;;;;;;;;5079744;28;45320;-77
2024/04/07 05:44:59;;;;;;;;;2.00;1.00;;;;;;;;5076150;28;47116;-77
2024/04/07 05:47:24;;;;;;;;;1.67;1.67;;;;;;;;5070137;28;45308;-79
2024/04/07 05:49:49;;;;;;;;;0.00;0.00;;;;;;;;5088808;28;45399;-75
2024/04/07 05:52:14;;;;;;;;;0.00;0.00;;;;;;;;5082515;28;47193;-75
2024/04/07 05:54:39;;;;;;;;;0.00;0.00;;;;;;;;5081353;28;45419;-76
2024/04/07 05:57:05;;;;;;;;;1.00;1.00;;;;;;;;5089505;27;45313;-76
2024/04/07 05:59:30;;;;;;;;;2.33;0.33;;;;;;;;5116619;27;45209;-76
2024/04/07 06:01:55;;;;;;;;;1.00;1.00;;;;;;;;5115398;27;45321;-76
2024/04/07 06:04:21;;;;;;;;;2.00;1.33;;;;;;;;5114385;27;45170;-75
2024/04/07 06:06:47;;;;;;;;;0.00;0.00;;;;;;;;5079424;27;44697;-76
2024/04/07 06:09:12;;;;;;;;;0.33;0.33;;;;;;;;5067887;28;45379;-75
2024/04/07 06:11:37;;;;;;;;;0.00;0.00;;;;;;;;5066805;28;46134;-74
2024/04/07 06:14:03;;;;;;;;;1.00;1.00;;;;;;;;5064211;28;45173;-75
2024/04/07 06:16:28;;;;;;;;;1.00;1.00;;;;;;;;5060785;28;45326;-77
2024/04/07 06:18:54;;;;;;;;;0.33;0.33;;;;;;;;5059612;28;45142;-79
2024/04/07 06:21:21;;;;;;;;;0.67;0.67;;;;;;;;5059514;28;45353;-78
2024/04/07 06:23:46;;;;;;;;;1.00;1.00;;;;;;;;5057429;28;47274;-76
2024/04/07 06:26:11;;;;;;;;;0.00;0.00;;;;;;;;5059274;28;45381;-77
2024/04/07 06:28:36;;;;;;;;;0.33;0.33;;;;;;;;5060661;28;45262;-76
2024/04/07 06:31:03;;;;;;;;;3.67;3.00;;;;;;;;5064248;28;45341;-77
2024/04/07 06:33:29;;;;;;;;;1.00;1.00;;;;;;;;5067812;28;45402;-78
2024/04/07 06:35:54;;;;;;;;;2.00;1.67;;;;;;;;5068368;28;45378;-79
2024/04/07 06:38:19;;;;;;;;;1.00;1.00;;;;;;;;5071254;28;46571;-78
2024/04/07 06:40:44;;;;;;;;;1.00;0.33;;;;;;;;5063154;28;45319;-77
2024/04/07 06:43:10;;;;;;;;;1.33;1.00;;;;;;;;5058874;28;45247;-77
2024/04/07 06:45:35;;;;;;;;;1.00;1.00;;;;;;;;5060006;28;45142;-77
2024/04/07 06:48:00;;;;;;;;;2.00;2.00;;;;;;;;5059824;28;45441;-77
2024/04/07 06:50:25;;;;;;;;;1.00;1.00;;;;;;;;5060491;28;45240;-76
2024/04/07 06:52:50;;;;;;;;;1.00;1.00;;;;;;;;5058794;28;45453;-76
2024/04/07 06:55:15;;;;;;;;;1.00;1.00;;;;;;;;5057474;28;46051;-75
2024/04/07 06:57:41;;;;;;;;;2.25;2.00;;;;;;;;5081242;27;45346;-76
2024/04/07 07:00:06;;;;;;;;;2.33;2.33;;;;;;;;5088950;27;46127;-76
2024/04/07 07:02:31;;;;;;;;;2.67;2.67;;;;;;;;5078995;28;46343;-76
2024/04/07 07:04:56;;;;;;;;;3.67;3.00;;;;;;;;5075386;28;45191;-77
2024/04/07 07:07:22;;;;;;;;;1.67;1.00;;;;;;;;5072852;28;45587;-76
2024/04/07 07:09:47;;;;;;;;;2.00;2.00;;;;;;;;5073698;28;45489;-76
2024/04/07 07:12:12;;;;;;;;;0.50;0.00;;;;;;;;5072444;28;45440;-77
2024/04/07 07:14:37;;;;;;;;;2.00;1.33;;;;;;;;5061802;28;45204;-75
2024/04/07 07:17:02;;;;;;;;;1.00;1.00;;;;;;;;5062471;28;45261;-77
2024/04/07 07:19:28;;;;;;;;;1.00;1.00;;;;;;;;5076855;28;45870;-78
2024/04/07 07:21:53;;;;;;;;;1.00;1.00;;;;;;;;5078987;28;45172;-79
2024/04/07 07:24:18;;;;;;;;;0.50;0.50;;;;;;;;5063467;28;45228;-78
2024/04/07 07:26:43;;;;;;;;;0.00;0.00;;;;;;;;5076781;28;45571;-77
2024/04/07 07:29:08;;;;;;;;;0.67;0.67;;;;;;;;5083460;28;45388;-78
2024/04/07 07:31:34;;;;;;;;;0.00;0.00;;;;;;;;5068949;28;47204;-78
2024/04/07 07:33:59;;;;;;;;;0.00;0.00;;;;;;;;5066352;28;45214;-77
2024/04/07 07:36:24;;;;;;;;;0.50;0.50;;;;;;;;5079175;28;45375;-77
2024/04/07 07:38:50;;;;;;;;;1.00;1.00;;;;;;;;5066552;28;47078;-77
2024/04/07 07:41:18;;;;;;;;;2.00;2.00;;;;;;;;5071006;28;45280;-77
2024/04/07 07:43:43;;;;;;;;;1.33;1.33;;;;;;;;5068918;28;45748;-77
2024/04/07 07:46:08;;;;;;;;;2.00;2.00;;;;;;;;5068297;28;45332;-77
2024/04/07 07:48:37;;;;;;;;;3.33;1.00;;;;;;;;5062227;28;46291;-77
2024/04/07 07:51:03;;;;;;;;;0.00;0.00;;;;;;;;5063525;28;45416;-77
2024/04/07 07:53:31;;;;;;;;;1.33;1.00;;;;;;;;5062212;28;45199;-77
2024/04/07 07:55:58;;;;;;;;;2.00;2.00;;;;;;;;5062783;28;45319;-77
2024/04/07 07:58:23;;;;;;;;;3.00;3.00;;;;;;;;5094550;27;45324;-77
2024/04/07 08:00:48;;;;;;;;;2.00;1.33;;;;;;;;5102643;27;46121;-77
2024/04/07 08:03:13;;;;;;;;;1.67;1.00;;;;;;;;5083115;27;45468;-77
2024/04/07 08:05:38;;;;;;;;;2.00;0.33;;;;;;;;5061666;28;45371;-78
2024/04/07 08:08:04;;;;;;;;;1.00;1.00;;;;;;;;5063616;28;45350;-76
2024/04/07 08:10:29;;;;;;;;;2.67;1.33;;;;;;;;5062221;28;45320;-78
2024/04/07 08:12:54;;;;;;;;;2.00;2.00;;;;;;;;5061086;28;45372;-78
2024/04/07 08:15:19;;;;;;;;;1.00;1.00;;;;;;;;5062498;28;45478;-79
2024/04/07 08:17:44;;;;;;;;;2.00;2.00;;;;;;;;5062709;28;45272;-78
2024/04/07 08:20:09;;;;;;;;;1.67;1.00;;;;;;;;5068317;28;47287;-77
2024/04/07 08:22:35;;;;;;;;;1.33;1.33;;;;;;;;5088925;28;45191;-77
2024/04/07 08:25:00;;;;;;;;;2.00;2.00;;;;;;;;5082836;28;45610;-80
2024/04/07 08:27:25;;;;;;;;;0.00;0.00;;;;;;;;5084777;28;45471;-76
2024/04/07 08:29:50;;;;;;;;;2.00;2.00;;;;;;;;5082515;28;45327;-77
2024/04/07 08:32:16;;;;;;;;;2.33;2.33;;;;;;;;5082189;28;45341;-77
2024/04/07 08:34:41;;;;;;;;;1.00;1.00;;;;;;;;5086335;28;45323;-75
2024/04/07 08:37:09;;;;;;;;;1.00;1.00;;;;;;;;5092980;28;45252;-75
2024/04/07 08:39:34;;;;;;;;;1.00;1.00;;;;;;;;5090481;28;45536;-77
2024/04/07 08:42:00;;;;;;;;;1.00;1.00;;;;;;;;5095373;28;45290;-77
2024/04/07 08:44:26;;;;;;;;;2.50;2.50;;;;;;;;5089292;28;45488;-79
2024/04/07 08:46:52;;;;;;;;;2.33;2.33;;;;;;;;5067323;28;45485;-78
2024/04/07 08:49:18;;;;;;;;;2.00;1.00;;;;;;;;5061331;28;48061;-78
2024/04/07 08:51:45;;;;;;;;;2.00;2.00;;;;;;;;5076335;27;45416;-76
2024/04/07 08:54:10;;;;;;;;;1.00;1.00;;;;;;;;5092074;27;45314;-76
2024/04/07 08:56:37;;;;;;;;;1.00;1.00;;;;;;;;5084789;27;47461;-76
2024/04/07 08:59:03;;;;;;;;;3.25;2.00;;;;;;;;5107717;27;48792;-78
2024/04/07 09:01:31;;;;;;;;;4.67;4.33;;;;;;;;5104355;27;45397;-76
2024/04/07 09:03:59;;;;;;;;;4.67;4.00;;;;;;;;5106767;27;45384;-77
2024/04/07 09:06:28;;;;;;;;;4.00;4.00;;;;;;;;5110976;27;45325;-77
2024/04/07 09:08:55;;;;;;;;;2.75;1.50;;;;;;;;5110549;27;45322;-78
2024/04/07 09:11:21;;;;;;;;;1.00;1.00;;;;;;;;5110435;27;45329;-77
2024/04/07 09:13:46;;;;;;;;;1.00;1.00;;;;;;;;5111244;27;45358;-77
2024/04/07 09:16:11;;;;;;;;;2.00;2.00;;;;;;;;5107558;27;45401;-78
2024/04/07 09:18:36;;;;;;;;;2.00;2.00;;;;;;;;5109722;27;45405;-77
2024/04/07 09:21:02;;;;;;;;;2.00;2.00;;;;;;;;5112640;27;45387;-78
2024/04/07 09:23:28;;;;;;;;;2.50;2.50;;;;;;;;5112818;27;45317;-77
2024/04/07 09:25:53;;;;;;;;;6.67;6.00;;;;;;;;5112749;27;45500;-78
2024/04/07 09:28:18;;;;;;;;;7.67;7.33;;;;;;;;5112499;27;45269;-78
2024/04/07 09:30:44;;;;;;;;;8.33;7.67;;;;;;;;5111705;27;45350;-78
2024/04/07 09:33:09;;;;;;;;;6.33;6.33;;;;;;;;5110282;27;45224;-78
2024/04/07 09:35:34;;;;;;;;;5.00;4.00;;;;;;;;5106943;27;47405;-77
2024/04/07 09:37:59;;;;;;;;;3.33;3.33;;;;;;;;5107733;27;45467;-78
2024/04/07 09:40:27;;;;;;;;;3.00;3.00;;;;;;;;5106630;27;45148;-78
2024/04/07 09:42:56;;;;;;;;;6.00;5.00;;;;;;;;5104642;27;45261;-78
2024/04/07 09:45:21;;;;;;;;;4.33;4.00;;;;;;;;5104544;27;45492;-78
2024/04/07 09:47:49;;;;;;;;;3.00;3.00;;;;;;;;5102516;27;46511;-78
2024/04/07 09:50:17;;;;;;;;;1.00;1.00;;;;;;;;5105307;27;45302;-78
2024/04/07 09:52:47;;;;;;;;;1.00;1.00;;;;;;;;5107450;27;45250;-78
2024/04/07 09:55:16;;;;;;;;;2.00;2.00;;;;;;;;5105703;27;46511;-78
2024/04/07 09:57:41;;;;;;;;;4.00;4.00;;;;;;;;5102407;27;47256;-79
2024/04/07 10:00:10;;;;;;;;;2.25;1.25;;;;;;;;5109018;27;45274;-78
2024/04/07 10:02:37;;;;;;;;;3.50;2.00;;;;;;;;5107696;27;45318;-79
2024/04/07 10:05:05;;;;;;;;;4.25;3.00;;;;;;;;5103885;27;45357;-81
2024/04/07 10:07:31;;;;;;;;;2.50;2.50;;;;;;;;5079532;27;46004;-79
2024/04/07 10:09:56;;;;;;;;;2.00;2.00;;;;;;;;5076607;28;45341;-79
2024/04/07 10:12:28;;;;;;;;;2.50;2.50;;;;;;;;5068481;28;45263;-79
2024/04/07 10:14:53;;;;;;;;;1.00;1.00;;;;;;;;5064706;28;46133;-79
2024/04/07 10:17:19;;;;;;;;;3.00;2.00;;;;;;;;5070198;28;46361;-79
2024/04/07 10:19:45;;;;;;;;;2.25;1.00;;;;;;;;5065740;28;45358;-79
2024/04/07 10:22:11;;;;;;;;;2.00;1.25;;;;;;;;5061426;28;45391;-79
2024/04/07 10:24:36;;;;;;;;;3.50;3.50;;;;;;;;5062194;28;45243;-79
2024/04/07 10:27:02;;;;;;;;;2.00;2.00;;;;;;;;5065521;28;46989;-79
2024/04/07 10:29:28;;;;;;;;;2.25;1.00;;;;;;;;5084811;28;45278;-79
2024/04/07 10:31:53;;;;;;;;;1.25;1.25;;;;;;;;5077981;28;45399;-79
2024/04/07 10:34:18;;;;;;;;;1.00;1.00;;;;;;;;5069224;28;45158;-79
2024/04/07 10:36:52;;;;;;;;;3.25;1.75;;;;;;;;5062945;28;45462;-80
2024/04/07 10:39:17;;;;;;;;;4.00;4.00;;;;;;;;5064609;28;45809;-78
2024/04/07 10:41:42;;;;;;;;;4.50;3.50;;;;;;;;5063446;28;45330;-79
2024/04/07 10:44:09;;;;;;;;;3.00;2.75;;;;;;;;5062517;28;46432;-79
2024/04/07 10:46:34;;;;;;;;;2.00;2.00;;;;;;;;5063338;28;47396;-79
2024/04/07 10:49:00;;;;;;;;;1.75;1.00;;;;;;;;5062645;28;45426;-79
2024/04/07 10:51:26;;;;;;;;;2.00;2.00;;;;;;;;5063562;28;45268;-79
2024/04/07 10:54:01;;;;;;;;;2.00;2.00;;;;;;;;5069324;28;45392;-78
2024/04/07 10:56:26;;;;;;;;;2.50;2.50;;;;;;;;5065886;27;46461;-78
2024/04/07 10:58:52;;;;;;;;;1.25;1.25;;;;;;;;5104797;27;45275;-78
2024/04/07 11:01:18;;;;;;;;;2.75;2.75;;;;;;;;5108269;27;45295;-78
2024/04/07 11:03:43;;;;;;;;;1.50;1.50;;;;;;;;5105443;27;46099;-77
2024/04/07 11:06:09;;;;;;;;;3.00;1.00;;;;;;;;5105270;27;45344;-79
2024/04/07 11:08:34;;;;;;;;;3.00;3.00;;;;;;;;5084344;28;45365;-78
2024/04/07 11:11:01;;;;;;;;;1.25;1.25;;;;;;;;5082197;28;45279;-79
2024/04/07 11:13:27;;;;;;;;;2.00;2.00;;;;;;;;5083678;28;45202;-78
2024/04/07 11:15:52;;;;;;;;;1.25;1.25;;;;;;;;5083105;28;46596;-78
2024/04/07 11:18:19;;;;;;;;;1.75;1.75;;;;;;;;5064719;28;45218;-78
2024/04/07 11:20:44;;;;;;;;;2.00;2.00;;;;;;;;5083833;28;45262;-77
2024/04/07 11:23:10;;;;;;;;;2.50;2.50;;;;;;;;5085135;28;47245;-78
2024/04/07 11:25:36;;;;;;;;;5.25;2.50;;;;;;;;5082294;28;48599;-79
2024/04/07 11:28:02;;;;;;;;;3.75;3.00;;;;;;;;5083017;27;45715;-77
2024/04/07 11:30:34;;;;;;;;;4.00;3.00;;;;;;;;5082198;27;45330;-78
2024/04/07 11:33:00;;;;;;;;;2.50;2.50;;;;;;;;5081602;27;45279;-79
2024/04/07 11:35:26;;;;;;;;;5.50;4.00;;;;;;;;5079600;28;48185;-77
2024/04/07 11:37:51;;;;;;;;;3.75;2.75;;;;;;;;5081058;28;45767;-78
2024/04/07 11:40:16;;;;;;;;;2.00;2.00;;;;;;;;5083558;28;45382;-78
2024/04/07 11:42:42;;;;;;;;;2.75;1.50;;;;;;;;5080212;28;47081;-77
2024/04/07 11:45:07;;;;;;;;;2.25;1.25;;;;;;;;5080657;28;48499;-78
2024/04/07 11:47:32;;;;;;;;;4.50;4.00;;;;;;;;5080666;28;45408;-79
2024/04/07 11:49:57;;;;;;;;;4.00;3.00;;;;;;;;5081491;28;45362;-78
2024/04/07 11:52:22;;;;;;;;;4.25;4.00;;;;;;;;5081821;28;45390;-78
2024/04/07 11:54:48;;;;;;;;;2.00;2.00;;;;;;;;5081933;28;45501;-78
2024/04/07 11:57:13;;;;;;;;;4.00;4.00;;;;;;;;5086916;27;45324;-77
2024/04/07 11:59:38;;;;;;;;;2.00;2.00;;;;;;;;5100612;27;45318;-78
2024/04/07 12:02:03;;;;;;;;;3.25;3.25;;;;;;;;5102025;27;45386;-77
2024/04/07 12:04:29;;;;;;;;;2.75;2.75;;;;;;;;5102153;27;45349;-78
2024/04/07 12:06:54;;;;;;;;;6.00;2.00;;;;;;;;5102063;27;45307;-77
2024/04/07 12:09:19;;;;;;;;;2.00;2.00;;;;;;;;5102907;27;45325;-79
2024/04/07 12:11:44;;;;;;;;;4.25;4.25;;;;;;;;5093592;27;46954;-79
2024/04/07 12:14:09;;;;;;;;;4.25;3.00;;;;;;;;5066751;28;45283;-78
2024/04/07 12:16:35;;;;;;;;;5.50;5.00;;;;;;;;5068162;28;45304;-78
2024/04/07 12:19:00;;;;;;;;;4.50;4.25;;;;;;;;5077587;28;45367;-79
2024/04/07 12:21:25;;;;;;;;;4.25;3.75;;;;;;;;5082073;28;45591;-79
2024/04/07 12:23:50;;;;;;;;;3.25;3.25;;;;;;;;5082876;28;45982;-78
2024/04/07 12:26:16;;;;;;;;;2.75;2.75;;;;;;;;5064093;28;45538;-79
2024/04/07 12:28:41;;;;;;;;;2.00;1.25;;;;;;;;5083129;28;45366;-78
2024/04/07 12:31:06;;;;;;;;;1.75;1.75;;;;;;;;5083777;27;45338;-78
2024/04/07 12:33:32;;;;;;;;;4.00;4.00;;;;;;;;5068242;28;45559;-77
2024/04/07 12:35:57;;;;;;;;;5.00;4.75;;;;;;;;5073301;27;45241;-77
2024/04/07 12:38:22;;;;;;;;;3.00;3.00;;;;;;;;5072182;28;45411;-78
2024/04/07 12:40:48;;;;;;;;;3.25;3.25;;;;;;;;5075614;27;45353;-79
2024/04/07 12:43:13;;;;;;;;;3.00;3.00;;;;;;;;5077173;28;46153;-78
2024/04/07 12:45:38;;;;;;;;;3.00;3.00;;;;;;;;5079611;27;45633;-77
2024/04/07 12:48:19;;;;;;;;;4.25;4.25;;;;;;;;5084692;27;45405;-76
2024/04/07 12:50:45;;;;;;;;;4.00;4.00;;;;;;;;5076259;27;45508;-78
2024/04/07 12:53:10;;;;;;;;;3.75;3.25;;;;;;;;5078326;28;45370;-77
2024/04/07 12:55:35;;;;;;;;;2.75;2.75;;;;;;;;5084087;27;45293;-77
2024/04/07 12:58:01;;;;;;;;;4.00;4.00;;;;;;;;5089536;27;45267;-78
2024/04/07 13:00:27;;;;;;;;;3.00;2.50;;;;;;;;5097832;27;45291;-77
2024/04/07 13:02:53;;;;;;;;;2.00;2.00;;;;;;;;5069996;28;45422;-78
2024/04/07 13:05:18;;;;;;;;;4.25;3.00;;;;;;;;5075051;28;45432;-77
2024/04/07 13:07:43;;;;;;;;;4.33;4.33;;;;;;;;5074341;28;45516;-79
2024/04/07 13:10:08;;;;;;;;;3.50;3.00;;;;;;;;5065165;28;45613;-79
2024/04/07 13:12:34;;;;;;;;;2.00;2.00;;;;;;;;5059521;28;45487;-80
2024/04/07 13:14:59;;;;;;;;;3.00;2.50;;;;;;;;5058110;28;45337;-79
2024/04/07 13:17:25;;;;;;;;;4.25;4.00;;;;;;;;5065099;28;45232;-79
2024/04/07 13:19:50;;;;;;;;;4.50;4.25;;;;;;;;5078985;28;45844;-79
2024/04/07 13:22:15;;;;;;;;;3.75;3.75;;;;;;;;5079382;28;45663;-79
2024/04/07 13:24:41;;;;;;;;;5.00;5.00;;;;;;;;5077405;28;45496;-79
2024/04/07 13:27:06;;;;;;;;;6.75;4.75;;;;;;;;5076214;28;45364;-79
2024/04/07 13:29:31;;;;;;;;;4.50;4.25;;;;;;;;5071559;28;45378;-78
2024/04/07 13:31:56;;;;;;;;;4.25;4.25;;;;;;;;5077872;28;47178;-79
2024/04/07 13:34:21;;;;;;;;;5.33;3.67;;;;;;;;5078948;28;45393;-79
2024/04/07 13:36:46;;;;;;;;;8.00;8.00;;;;;;;;5079380;28;45571;-79
2024/04/07 13:39:13;;;;;;;;;8.67;7.67;;;;;;;;5066456;27;45330;-80
2024/04/07 13:41:38;;;;;;;;;4.00;4.00;;;;;;;;5078188;28;47240;-79
2024/04/07 13:44:04;;;;;;;;;5.00;5.00;;;;;;;;5075999;28;45507;-80
2024/04/07 13:46:31;;;;;;;;;5.25;5.25;;;;;;;;5071964;28;45359;-81
2024/04/07 13:48:57;;;;;;;;;6.00;6.00;;;;;;;;5067766;28;45214;-80
2024/04/07 13:51:22;;;;;;;;;5.25;5.25;;;;;;;;5062696;28;45307;-81
2024/04/07 13:53:47;;;;;;;;;8.50;6.25;;;;;;;;5064357;28;45348;-81
2024/04/07 13:56:12;;;;;;;;;7.67;7.67;;;;;;;;5068664;28;45478;-81
2024/04/07 13:58:37;;;;;;;;;5.00;4.00;;;;;;;;5069395;27;46252;-81
2024/04/07 14:01:04;;;;;;;;;5.00;5.00;;;;;;;;5069531;28;45576;-80
2024/04/07 14:03:29;;;;;;;;;3.00;3.00;;;;;;;;5073475;28;45738;-79
2024/04/07 14:05:55;;;;;;;;;4.00;4.00;;;;;;;;5069357;28;45530;-79
2024/04/07 14:08:20;;;;;;;;;1.50;1.50;;;;;;;;5067250;28;45812;-79
2024/04/07 14:10:48;;;;;;;;;3.50;3.00;;;;;;;;5069971;28;45466;-80
2024/04/07 14:13:13;;;;;;;;;3.75;3.75;;;;;;;;5071371;28;45453;-80
2024/04/07 14:15:39;;;;;;;;;4.00;4.00;;;;;;;;5072087;28;45305;-79
2024/04/07 14:18:04;;;;;;;;;3.50;2.75;;;;;;;;5077245;28;45334;-79
2024/04/07 14:20:29;;;;;;;;;1.00;1.00;;;;;;;;5082102;28;47092;-79
2024/04/07 14:22:54;;;;;;;;;5.75;3.75;;;;;;;;5081627;28;45306;-79
2024/04/07 14:25:20;;;;;;;;;0.50;0.00;;;;;;;;5080816;28;45461;-79
2024/04/07 14:27:46;;;;;;;;;2.25;2.25;;;;;;;;5077812;28;45172;-79
2024/04/07 14:30:11;;;;;;;;;2.00;2.00;;;;;;;;5080508;28;45240;-80
2024/04/07 14:32:37;;;;;;;;;2.50;2.00;;;;;;;;5081052;28;45401;-79
2024/04/07 14:35:02;;;;;;;;;3.00;2.00;;;;;;;;5078035;28;45287;-79
2024/04/07 14:37:27;;;;;;;;;2.00;2.00;;;;;;;;5076244;28;46016;-79
2024/04/07 14:39:52;;;;;;;;;2.75;2.00;;;;;;;;5076662;28;45985;-79